MUGM/NBW METAR and TAF weather

Enter ICAO airport designator
Station Type Date Time Source
MUGM METAR 2022/01/23 11:51 UTC NOAA

MUGM 231151Z 34006KT 10SM FEW025 SCT095 SCT200 22/22 A2999 RMK AO2 SLP156 T02220222 10244 20222 53010 $


Station Type Date Time Source
MUGM Decoded METAR 2022/01/23 11:51 UTC NOAA

GUANTANAMO BAY, CUBA NAVAL, CU, Cuba (MUGM) 19-55N 075-12W 23M
Jan 23, 2022 - 06:51 AM EST / 2022.01.23 1151 UTC
Wind: from the NNW (340 degrees) at 7 MPH (6 KT):0
Visibility: 10 mile(s):0
Sky conditions: partly cloudy
Temperature: 72.0 F (22.2 C)
Dew Point: 72.0 F (22.2 C)
Relative Humidity: 100%
Pressure (altimeter): 29.99 in. Hg (1015 hPa)
Pressure tendency: 0.03 inches (1.0 hPa) higher than three hours ago
ob: MUGM 231151Z 34006KT 10SM FEW025 SCT095 SCT200 22/22 A2999 RMK AO2 SLP156 T02220222 10244 20222 53010
cycle: 12

Station Type Date Time Source
MUGM TAF 2022/01/23 07:13 UTC NOAA

TAF MUGM 2307/2407 VRB05KT 9999 BKN010 BKN150 QNH2990INS
BECMG 2321/2323 25008KT 9999 VCTS SCT020 BKN100 QNH2987INS T22/2309Z T28/2318Z FN00222

Example: see airport list